createdAt,value
2022-11-11T00:01:28.185Z,100247.84
2022-11-11T00:04:13.598Z,100248.59
2022-11-11T00:06:59.291Z,100238.03
2022-11-11T00:09:45.008Z,100234.41
2022-11-11T00:12:30.482Z,100246.31
2022-11-11T00:15:15.892Z,100242.38
2022-11-11T00:18:19.900Z,100238.09
2022-11-11T00:21:24.341Z,100242.19
2022-11-11T00:24:48.467Z,100242.63
2022-11-11T00:27:35.454Z,100233.19
2022-11-11T00:30:21.773Z,100227.72
2022-11-11T00:33:07.139Z,100225.56
2022-11-11T00:35:54.556Z,100226.91
2022-11-11T00:38:48.273Z,100241.94
2022-11-11T00:41:34.066Z,100228.16
2022-11-11T00:44:19.868Z,100230.25
2022-11-11T00:47:24.266Z,100223.84
2022-11-11T00:50:47.671Z,100226.28
2022-11-11T00:53:35.464Z,100213.91
2022-11-11T00:56:21.845Z,100221.81
2022-11-11T00:59:09.027Z,100222.81
2022-11-11T01:01:54.470Z,100214.78
2022-11-11T01:04:39.982Z,100222.88
2022-11-11T01:07:25.819Z,100227.22
2022-11-11T01:10:11.631Z,100219.38
2022-11-11T01:13:12.352Z,100225.09
2022-11-11T01:16:07.058Z,100217.28
2022-11-11T01:18:53.695Z,100219.38
2022-11-11T01:21:39.388Z,100222.00
2022-11-11T01:24:25.068Z,100222.31
2022-11-11T01:27:10.361Z,100220.06
2022-11-11T01:29:56.054Z,100225.94
2022-11-11T01:32:42.196Z,100219.88
2022-11-11T01:35:28.116Z,100226.72
2022-11-11T01:38:14.207Z,100211.44
2022-11-11T01:40:59.809Z,100223.91
2022-11-11T01:43:45.095Z,100222.44
2022-11-11T01:46:53.781Z,100224.91
2022-11-11T01:50:05.857Z,100216.91
2022-11-11T01:52:51.651Z,100216.53
2022-11-11T01:55:37.542Z,100220.53
2022-11-11T01:58:23.218Z,100221.94
2022-11-11T02:01:09.350Z,100228.09
2022-11-11T02:04:17.828Z,100223.59
2022-11-11T02:07:07.863Z,100215.88
2022-11-11T02:09:54.392Z,100222.19
2022-11-11T02:12:58.689Z,100222.06
2022-11-11T02:15:45.082Z,100214.47
2022-11-11T02:18:33.333Z,100228.41
2022-11-11T02:21:32.857Z,100215.81
2022-11-11T02:24:21.682Z,100218.63
2022-11-11T02:27:12.238Z,100212.25
2022-11-11T02:30:02.158Z,100223.19
2022-11-11T02:32:49.999Z,100217.72
2022-11-11T02:35:38.676Z,100219.06
2022-11-11T02:38:26.497Z,100214.47
2022-11-11T02:41:30.961Z,100213.28
2022-11-11T02:44:16.482Z,100212.13
2022-11-11T02:47:02.226Z,100214.28
2022-11-11T02:49:48.093Z,100214.41
2022-11-11T02:52:34.040Z,100226.78
2022-11-11T02:55:19.925Z,100226.53
2022-11-11T02:58:05.543Z,100221.56
2022-11-11T03:00:51.132Z,100219.94
2022-11-11T03:03:36.976Z,100218.38
2022-11-11T03:06:22.294Z,100212.78
2022-11-11T03:09:08.173Z,100212.56
2022-11-11T03:11:53.798Z,100214.91
2022-11-11T03:14:39.422Z,100221.28
2022-11-11T03:17:40.647Z,100213.47
2022-11-11T03:20:45.387Z,100213.66
2022-11-11T03:23:31.026Z,100213.41
2022-11-11T03:26:16.265Z,100214.78
2022-11-11T03:29:01.937Z,100214.09
2022-11-11T03:31:47.464Z,100220.00
2022-11-11T03:34:33.196Z,100221.41
2022-11-11T03:37:37.511Z,100218.88
2022-11-11T03:40:23.238Z,100234.53
2022-11-11T03:43:09.211Z,100228.81
2022-11-11T03:45:56.901Z,100222.19
2022-11-11T03:48:42.542Z,100227.84
2022-11-11T03:51:27.995Z,100223.00
2022-11-11T03:54:13.822Z,100230.44
2022-11-11T03:57:18.295Z,100235.91
2022-11-11T04:00:12.031Z,100234.03
2022-11-11T04:03:38.282Z,100232.81
2022-11-11T04:06:42.655Z,100226.19
2022-11-11T04:09:47.172Z,100233.72
2022-11-11T04:12:55.383Z,100240.06
2022-11-11T04:15:59.385Z,100253.31
2022-11-11T04:19:03.736Z,100241.53
2022-11-11T04:21:50.167Z,100248.94
2022-11-11T04:24:54.610Z,100237.69
2022-11-11T04:27:40.321Z,100251.59
2022-11-11T04:30:25.974Z,100246.50
2022-11-11T04:33:11.209Z,100256.69
2022-11-11T04:35:56.854Z,100249.94
2022-11-11T04:39:01.290Z,100254.97
2022-11-11T04:42:07.227Z,100261.28
2022-11-11T04:45:11.086Z,100270.59
2022-11-11T04:48:03.772Z,100280.66
2022-11-11T04:50:49.419Z,100276.25
2022-11-11T04:53:34.835Z,100279.09
2022-11-11T04:56:39.284Z,100281.28
2022-11-11T04:59:24.877Z,100280.03
2022-11-11T05:02:28.863Z,100264.78
2022-11-11T05:05:14.777Z,100274.25
2022-11-11T05:08:18.945Z,100273.44
2022-11-11T05:11:04.464Z,100278.97
2022-11-11T05:14:09.868Z,100280.03
2022-11-11T05:17:16.369Z,100276.19
2022-11-11T05:20:20.970Z,100279.41
2022-11-11T05:23:06.584Z,100278.09
2022-11-11T05:25:52.440Z,100278.09
2022-11-11T05:28:37.939Z,100283.19
2022-11-11T05:31:23.891Z,100280.34
2022-11-11T05:34:09.548Z,100290.34
2022-11-11T05:36:55.047Z,100285.13
2022-11-11T05:39:40.417Z,100283.56
2022-11-11T05:42:25.944Z,100270.97
2022-11-11T05:45:11.512Z,100290.22
2022-11-11T05:48:01.629Z,100288.03
2022-11-11T05:50:47.671Z,100289.41
2022-11-11T05:53:34.197Z,100291.09
2022-11-11T05:56:20.012Z,100301.41
2022-11-11T05:59:07.192Z,100291.09
2022-11-11T06:01:53.153Z,100285.09
2022-11-11T06:04:38.607Z,100304.28
2022-11-11T06:07:24.469Z,100307.25
2022-11-11T06:10:39.956Z,100307.56
2022-11-11T06:13:25.938Z,100310.56
2022-11-11T06:16:11.385Z,100320.00
2022-11-11T06:18:57.307Z,100320.91
2022-11-11T06:21:58.158Z,100321.16
2022-11-11T06:25:03.876Z,100332.56
2022-11-11T06:27:49.540Z,100323.25
2022-11-11T06:30:49.474Z,100321.34
2022-11-11T06:33:36.812Z,100332.94
2022-11-11T06:36:22.693Z,100333.50
2022-11-11T06:39:08.217Z,100333.72
2022-11-11T06:41:54.025Z,100327.50
2022-11-11T06:44:39.795Z,100322.03
2022-11-11T06:47:25.054Z,100326.13
2022-11-11T06:50:10.756Z,100320.84
2022-11-11T06:52:56.592Z,100333.22
2022-11-11T06:55:42.571Z,100338.09
2022-11-11T06:58:28.409Z,100336.59
2022-11-11T07:01:14.550Z,100323.97
2022-11-11T07:04:00.013Z,100330.59
2022-11-11T07:06:45.195Z,100337.47
2022-11-11T07:09:30.993Z,100333.34
2022-11-11T07:12:16.506Z,100344.47
2022-11-11T07:15:01.846Z,100321.94
2022-11-11T07:17:47.051Z,100338.47
2022-11-11T07:20:32.823Z,100344.84
2022-11-11T07:23:18.357Z,100341.56
2022-11-11T07:26:03.817Z,100341.09
2022-11-11T07:28:50.917Z,100341.66
2022-11-11T07:31:36.732Z,100352.38
2022-11-11T07:34:22.071Z,100348.59
2022-11-11T07:37:07.135Z,100355.75
2022-11-11T07:39:52.427Z,100353.69
2022-11-11T07:42:42.222Z,100351.78
2022-11-11T07:45:27.552Z,100357.69
2022-11-11T07:48:13.278Z,100352.72
2022-11-11T07:50:58.340Z,100360.66
2022-11-11T07:53:44.062Z,100364.16
2022-11-11T07:56:29.734Z,100374.75
2022-11-11T07:59:15.565Z,100378.44
2022-11-11T08:02:01.242Z,100380.88
2022-11-11T08:04:52.389Z,100382.47
2022-11-11T08:07:42.601Z,100368.63
2022-11-11T08:10:28.326Z,100379.97
2022-11-11T08:13:32.912Z,100376.19
2022-11-11T08:16:18.605Z,100370.47
2022-11-11T08:19:04.397Z,100365.50
2022-11-11T08:21:49.706Z,100351.94
2022-11-11T08:27:40.740Z,100348.13
2022-11-11T08:30:26.170Z,100354.44
2022-11-11T08:33:32.285Z,100346.56
2022-11-11T08:36:20.782Z,100347.97
2022-11-11T08:39:07.233Z,100348.91
2022-11-11T08:41:52.678Z,100345.03
2022-11-11T08:44:38.150Z,100343.00
2022-11-11T08:47:25.102Z,100340.38
2022-11-11T08:50:11.143Z,100347.78
2022-11-11T08:52:57.727Z,100343.13
2022-11-11T08:55:43.402Z,100350.75
2022-11-11T08:58:29.078Z,100349.72
2022-11-11T09:01:15.595Z,100355.06
2022-11-11T09:04:16.725Z,100351.16
2022-11-11T09:07:08.296Z,100355.03
2022-11-11T09:09:53.724Z,100352.31
2022-11-11T09:12:39.895Z,100352.31
2022-11-11T09:15:26.573Z,100355.72
2022-11-11T09:18:12.279Z,100358.88
2022-11-11T09:21:00.921Z,100358.94
2022-11-11T09:23:46.535Z,100357.72
2022-11-11T09:26:31.751Z,100356.50
2022-11-11T09:29:17.990Z,100366.72
2022-11-11T09:32:03.493Z,100376.56
2022-11-11T09:34:48.715Z,100368.00
2022-11-11T09:37:34.489Z,100363.47
2022-11-11T09:40:23.688Z,100368.72
2022-11-11T09:43:33.140Z,100369.88
2022-11-11T09:46:47.601Z,100372.47
2022-11-11T09:49:51.859Z,100369.22
2022-11-11T09:52:43.418Z,100371.28
2022-11-11T09:56:31.334Z,100377.56
2022-11-11T09:59:22.593Z,100381.16
2022-11-11T10:02:19.538Z,100370.44
2022-11-11T10:05:20.410Z,100363.94
2022-11-11T10:08:43.583Z,100373.78
2022-11-11T10:11:51.123Z,100376.19
2022-11-11T10:14:40.329Z,100380.03
2022-11-11T10:17:37.613Z,100374.53
2022-11-11T10:20:38.279Z,100385.47
2022-11-11T10:23:32.472Z,100387.41
2022-11-11T10:26:37.526Z,100386.28
2022-11-11T10:29:26.583Z,100401.47
2022-11-11T10:32:22.318Z,100404.78
2022-11-11T10:35:20.095Z,100402.19
2022-11-11T10:38:17.523Z,100409.31
2022-11-11T10:41:25.459Z,100411.69
2022-11-11T10:44:21.533Z,100412.19
2022-11-11T10:47:56.310Z,100420.75
2022-11-11T10:50:44.426Z,100414.25
2022-11-11T10:54:03.245Z,100407.41
2022-11-11T10:56:57.327Z,100412.03
2022-11-11T11:00:02.290Z,100413.38
2022-11-11T11:02:50.669Z,100415.72
2022-11-11T11:05:48.416Z,100417.00
2022-11-11T11:08:46.151Z,100421.84
2022-11-11T11:11:41.875Z,100419.09
2022-11-11T11:14:36.822Z,100421.97
2022-11-11T11:17:33.677Z,100426.38
2022-11-11T11:20:21.087Z,100424.56
2022-11-11T11:23:06.792Z,100437.91
2022-11-11T11:25:56.909Z,100438.78
2022-11-11T11:29:01.844Z,100443.81
2022-11-11T11:31:47.824Z,100444.09
2022-11-11T11:34:46.777Z,100449.16
2022-11-11T11:37:32.510Z,100454.81
2022-11-11T11:40:18.498Z,100449.09
2022-11-11T11:43:27.093Z,100449.78
2022-11-11T11:46:27.495Z,100446.91
2022-11-11T11:49:22.563Z,100447.91
2022-11-11T11:52:26.390Z,100444.03
2022-11-11T11:55:12.132Z,100437.75
2022-11-11T11:58:18.200Z,100442.34
2022-11-11T12:01:10.614Z,100436.25
2022-11-11T12:03:56.305Z,100436.00
2022-11-11T12:06:47.879Z,100431.59
2022-11-11T12:09:48.020Z,100432.16
2022-11-11T12:12:45.991Z,100424.13
2022-11-11T12:15:40.664Z,100435.41
2022-11-11T12:18:31.875Z,100430.50
2022-11-11T12:21:24.616Z,100417.19
2022-11-11T12:24:18.626Z,100417.31
2022-11-11T12:27:18.226Z,100415.25
2022-11-11T12:30:28.801Z,100413.41
2022-11-11T12:33:20.151Z,100410.97
2022-11-11T12:36:10.926Z,100411.31
2022-11-11T12:39:27.609Z,100411.00
2022-11-11T12:42:18.778Z,100410.75
2022-11-11T12:45:24.523Z,100406.63
2022-11-11T12:48:24.870Z,100413.50
2022-11-11T12:51:10.361Z,100413.63
2022-11-11T12:54:02.052Z,100408.97
2022-11-11T12:57:16.022Z,100410.50
2022-11-11T13:00:20.734Z,100406.63
2022-11-11T13:03:40.204Z,100409.91
2022-11-11T13:07:01.602Z,100407.16
2022-11-11T13:10:25.644Z,100410.28
2022-11-11T13:13:35.574Z,100407.06
2022-11-11T13:16:24.543Z,100410.69
2022-11-11T13:19:22.100Z,100418.91
2022-11-11T13:22:29.712Z,100415.97
2022-11-11T13:25:26.379Z,100411.25
2022-11-11T13:28:25.084Z,100400.16
2022-11-11T13:31:30.273Z,100416.66
2022-11-11T13:34:16.558Z,100412.59
2022-11-11T13:37:05.953Z,100411.34
2022-11-11T13:39:57.709Z,100412.22
2022-11-11T13:42:51.028Z,100413.59
2022-11-11T13:45:43.435Z,100431.03
2022-11-11T13:48:33.969Z,100433.00
2022-11-11T13:51:39.571Z,100420.88
2022-11-11T13:54:29.855Z,100407.25
2022-11-11T13:57:21.219Z,100412.03
2022-11-11T14:00:29.021Z,100406.97
2022-11-11T14:03:14.098Z,100416.72
2022-11-11T14:06:14.168Z,100414.22
2022-11-11T14:09:00.150Z,100416.94
2022-11-11T14:11:45.901Z,100412.84
2022-11-11T14:14:37.230Z,100420.19
2022-11-11T14:17:23.265Z,100418.59
2022-11-11T14:20:30.273Z,100421.91
2022-11-11T14:23:18.595Z,100423.00
2022-11-11T14:26:06.942Z,100419.47
2022-11-11T14:28:55.070Z,100414.81
2022-11-11T14:31:52.757Z,100409.34
2022-11-11T14:34:50.478Z,100389.88
2022-11-11T14:37:57.230Z,100391.03
2022-11-11T14:40:42.814Z,100391.53
2022-11-11T14:43:38.296Z,100398.16
2022-11-11T14:46:24.059Z,100398.41
2022-11-11T14:49:09.756Z,100394.16
2022-11-11T14:52:00.015Z,100392.75
2022-11-11T14:55:03.684Z,100395.28
2022-11-11T14:57:51.164Z,100399.91
2022-11-11T15:00:50.371Z,100410.38
2022-11-11T15:03:50.055Z,100398.25
2022-11-11T15:06:59.873Z,100400.69
2022-11-11T15:09:47.879Z,100377.56
2022-11-11T15:13:02.939Z,100384.03
2022-11-11T15:15:59.473Z,100361.84
2022-11-11T15:18:53.477Z,100377.31
2022-11-11T15:21:56.795Z,100374.84
2022-11-11T15:24:48.105Z,100361.88
2022-11-11T15:27:42.370Z,100356.53
2022-11-11T15:31:05.220Z,100361.03
2022-11-11T15:34:18.294Z,100350.31
2022-11-11T15:37:09.644Z,100345.34
2022-11-11T15:39:57.893Z,100343.25
2022-11-11T15:42:50.132Z,100343.00
2022-11-11T15:45:36.736Z,100348.22
2022-11-11T15:48:30.012Z,100334.25
2022-11-11T15:51:31.397Z,100338.28
2022-11-11T15:54:19.286Z,100342.13
2022-11-11T15:57:33.433Z,100343.94
2022-11-11T16:00:24.747Z,100347.78
2022-11-11T16:03:36.211Z,100355.69
2022-11-11T16:06:22.439Z,100353.31
2022-11-11T16:09:12.631Z,100361.41
2022-11-11T16:11:58.907Z,100355.69
2022-11-11T16:14:48.233Z,100353.44
2022-11-11T16:17:40.857Z,100361.72
2022-11-11T16:20:44.507Z,100357.94
2022-11-11T16:23:30.751Z,100375.75
2022-11-11T16:26:17.394Z,100373.50
2022-11-11T16:29:03.013Z,100365.41
2022-11-11T16:31:48.486Z,100356.78
2022-11-11T16:34:36.323Z,100354.22
2022-11-11T16:37:22.362Z,100364.25
2022-11-11T16:40:26.481Z,100359.69
2022-11-11T16:43:15.964Z,100349.31
2022-11-11T16:46:03.566Z,100335.03
2022-11-11T16:48:52.173Z,100340.44
2022-11-11T16:51:39.849Z,100340.09
2022-11-11T16:54:30.215Z,100331.44
2022-11-11T16:57:21.850Z,100311.84
2022-11-11T17:00:13.918Z,100308.03
2022-11-11T17:03:17.135Z,100296.19
2022-11-11T17:06:07.973Z,100293.25
2022-11-11T17:08:53.911Z,100293.81
2022-11-11T17:11:39.363Z,100286.63
2022-11-11T17:14:30.174Z,100285.06
2022-11-11T17:17:15.994Z,100290.03
2022-11-11T17:20:05.059Z,100284.06
2022-11-11T17:22:58.486Z,100278.41
2022-11-11T17:25:44.684Z,100291.09
2022-11-11T17:28:36.058Z,100286.19
2022-11-11T17:31:21.888Z,100285.66
2022-11-11T17:34:08.768Z,100282.16
2022-11-11T17:36:53.966Z,100276.84
2022-11-11T17:39:43.273Z,100268.34
2022-11-11T17:42:31.367Z,100260.25
2022-11-11T17:45:17.360Z,100270.63
2022-11-11T17:48:02.996Z,100273.56
2022-11-11T17:50:48.689Z,100261.81
2022-11-11T17:53:36.530Z,100254.28
2022-11-11T17:56:22.087Z,100265.41
2022-11-11T17:59:10.493Z,100256.75
2022-11-11T18:01:56.212Z,100260.31
2022-11-11T18:04:42.023Z,100261.91
2022-11-11T18:07:27.603Z,100260.09
2022-11-11T18:10:14.422Z,100247.13
2022-11-11T18:13:00.152Z,100253.75
2022-11-11T18:15:45.597Z,100263.69
2022-11-11T18:18:32.179Z,100256.28
2022-11-11T18:21:17.769Z,100254.88
2022-11-11T18:24:06.883Z,100245.16
2022-11-11T18:26:52.375Z,100238.94
2022-11-11T18:29:38.225Z,100243.22
2022-11-11T18:32:23.797Z,100233.72
2022-11-11T18:35:09.563Z,100224.41
2022-11-11T18:37:55.325Z,100221.41
2022-11-11T18:40:40.798Z,100226.34
2022-11-11T18:43:26.862Z,100222.06
2022-11-11T18:46:24.010Z,100215.91
2022-11-11T18:49:13.012Z,100211.44
2022-11-11T18:51:58.926Z,100216.84
2022-11-11T18:54:44.041Z,100214.25
2022-11-11T18:57:31.378Z,100204.03
2022-11-11T19:00:17.119Z,100199.75
2022-11-11T19:03:03.047Z,100203.13
2022-11-11T19:05:48.421Z,100195.25
2022-11-11T19:08:35.122Z,100193.88
2022-11-11T19:11:20.493Z,100184.22
2022-11-11T19:14:07.011Z,100187.84
2022-11-11T19:16:52.385Z,100196.63
2022-11-11T19:19:37.997Z,100189.75
2022-11-11T19:22:23.776Z,100180.94
2022-11-11T19:25:09.936Z,100180.00
2022-11-11T19:27:55.666Z,100167.75
2022-11-11T19:30:41.678Z,100168.00
2022-11-11T19:33:27.142Z,100174.66
2022-11-11T19:36:19.387Z,100162.63
2022-11-11T19:39:05.200Z,100162.78
2022-11-11T19:41:51.098Z,100155.28
2022-11-11T19:44:36.643Z,100152.81
2022-11-11T19:47:22.397Z,100141.91
2022-11-11T19:50:08.498Z,100140.03
2022-11-11T19:52:53.701Z,100133.94
2022-11-11T19:55:39.777Z,100125.56
2022-11-11T19:58:25.294Z,100118.84
2022-11-11T20:01:21.829Z,100114.97
2022-11-11T20:04:07.463Z,100113.50
2022-11-11T20:06:52.925Z,100098.50
2022-11-11T20:09:38.584Z,100094.34
2022-11-11T20:12:23.981Z,100092.56
2022-11-11T20:15:09.796Z,100075.09
2022-11-11T20:17:54.938Z,100068.47
2022-11-11T20:20:40.414Z,100067.81
2022-11-11T20:23:25.933Z,100081.94
2022-11-11T20:26:14.325Z,100082.66
2022-11-11T20:28:59.864Z,100072.22
2022-11-11T20:31:45.532Z,100073.97
2022-11-11T20:34:31.424Z,100057.63
2022-11-11T20:37:16.877Z,100059.13
2022-11-11T20:40:02.817Z,100042.88
2022-11-11T20:42:48.163Z,100061.91
2022-11-11T20:45:33.405Z,100051.72
2022-11-11T20:48:19.089Z,100042.94
2022-11-11T20:51:16.444Z,100031.34
2022-11-11T20:54:01.944Z,100034.91
2022-11-11T20:56:49.206Z,100037.09
2022-11-11T20:59:35.013Z,100038.72
2022-11-11T21:02:24.104Z,100024.16
2022-11-11T21:05:09.824Z,100024.56
2022-11-11T21:07:55.220Z,100013.56
2022-11-11T21:10:40.693Z,100017.13
2022-11-11T21:13:27.389Z,100012.47
2022-11-11T21:16:17.657Z,100036.69
2022-11-11T21:19:04.388Z,100035.69
2022-11-11T21:21:49.820Z,100025.25
2022-11-11T21:24:36.256Z,100019.22
2022-11-11T21:27:21.722Z,100027.16
2022-11-11T21:30:07.623Z,100026.03
2022-11-11T21:32:53.426Z,100018.94
2022-11-11T21:35:38.612Z,100002.88
2022-11-11T21:38:24.174Z,99997.78
2022-11-11T21:41:12.613Z,99979.09
2022-11-11T21:43:58.876Z,99965.91
2022-11-11T21:46:44.231Z,99979.91
2022-11-11T21:49:29.842Z,100002.59
2022-11-11T21:52:15.160Z,99993.09
2022-11-11T21:55:00.879Z,99973.03
2022-11-11T21:57:46.001Z,99962.56
2022-11-11T22:00:31.137Z,99968.66
2022-11-11T22:03:16.971Z,99971.53
2022-11-11T22:06:13.211Z,99967.53
2022-11-11T22:08:59.898Z,99957.66
2022-11-11T22:11:45.099Z,99958.75
2022-11-11T22:14:30.696Z,99956.00
2022-11-11T22:17:16.307Z,99955.72
2022-11-11T22:20:02.006Z,99931.81
2022-11-11T22:22:47.737Z,99932.91
2022-11-11T22:25:33.555Z,99935.09
2022-11-11T22:28:19.311Z,99941.00
2022-11-11T22:31:28.209Z,99938.13
2022-11-11T22:34:14.753Z,99940.59
2022-11-11T22:37:00.209Z,99937.72
2022-11-11T22:39:45.479Z,99949.81
2022-11-11T22:42:31.494Z,99935.94
2022-11-11T22:45:17.018Z,99935.22
2022-11-11T22:48:02.667Z,99939.22
2022-11-11T22:50:47.904Z,99920.94
2022-11-11T22:53:33.360Z,99931.78
2022-11-11T22:56:19.857Z,99934.00
2022-11-11T22:59:05.108Z,99934.81
2022-11-11T23:01:50.652Z,99935.09
2022-11-11T23:04:36.147Z,99933.88
2022-11-11T23:07:21.779Z,99940.03
2022-11-11T23:10:08.029Z,99943.63
2022-11-11T23:12:58.472Z,99948.84
2022-11-11T23:15:56.060Z,99945.41
2022-11-11T23:18:41.946Z,99945.53
2022-11-11T23:21:28.768Z,99942.94
2022-11-11T23:24:14.213Z,99944.19
2022-11-11T23:26:59.484Z,99950.22
2022-11-11T23:29:49.774Z,99950.75
2022-11-11T23:32:37.646Z,99945.97
2022-11-11T23:35:23.234Z,99952.41
2022-11-11T23:38:09.175Z,99953.13
2022-11-11T23:40:54.523Z,99949.41
2022-11-11T23:43:40.006Z,99953.25
2022-11-11T23:46:25.791Z,99955.28
2022-11-11T23:49:11.246Z,99952.81
2022-11-11T23:51:56.902Z,99949.38
2022-11-11T23:54:42.558Z,99946.34
2022-11-11T23:57:27.918Z,99956.00
